sensor_id;sensor_type;location;lat;lon;timestamp;temperature;humidity
19536;HTU21D;9913;51.168;4.124;2023-12-20T00:02:00;5.90;112.73
19536;HTU21D;9913;51.168;4.124;2023-12-20T00:04:31;5.81;112.70
19536;HTU21D;9913;51.168;4.124;2023-12-20T00:07:01;5.81;112.92
19536;HTU21D;9913;51.168;4.124;2023-12-20T00:09:31;5.83;113.00
19536;HTU21D;9913;51.168;4.124;2023-12-20T00:12:00;5.86;112.78
19536;HTU21D;9913;51.168;4.124;2023-12-20T00:14:29;5.90;113.02
19536;HTU21D;9913;51.168;4.124;2023-12-20T00:16:59;5.90;112.91
19536;HTU21D;9913;51.168;4.124;2023-12-20T00:19:28;5.91;112.92
19536;HTU21D;9913;51.168;4.124;2023-12-20T00:21:58;5.87;113.16
19536;HTU21D;9913;51.168;4.124;2023-12-20T00:24:27;5.94;113.61
19536;HTU21D;9913;51.168;4.124;2023-12-20T00:26:56;5.85;113.12
19536;HTU21D;9913;51.168;4.124;2023-12-20T00:29:24;5.93;112.82
19536;HTU21D;9913;51.168;4.124;2023-12-20T00:31:52;5.76;113.31
19536;HTU21D;9913;51.168;4.124;2023-12-20T00:34:20;5.82;113.52
19536;HTU21D;9913;51.168;4.124;2023-12-20T00:36:49;5.78;113.57
19536;HTU21D;9913;51.168;4.124;2023-12-20T00:39:18;5.79;113.11
19536;HTU21D;9913;51.168;4.124;2023-12-20T00:41:47;5.81;113.29
19536;HTU21D;9913;51.168;4.124;2023-12-20T00:44:15;5.78;113.05
19536;HTU21D;9913;51.168;4.124;2023-12-20T00:46:43;5.77;112.97
19536;HTU21D;9913;51.168;4.124;2023-12-20T00:49:11;5.79;113.27
19536;HTU21D;9913;51.168;4.124;2023-12-20T00:51:40;5.86;113.11
19536;HTU21D;9913;51.168;4.124;2023-12-20T00:54:08;5.79;113.13
19536;HTU21D;9913;51.168;4.124;2023-12-20T00:56:38;5.76;112.98
19536;HTU21D;9913;51.168;4.124;2023-12-20T00:59:06;5.77;112.83
19536;HTU21D;9913;51.168;4.124;2023-12-20T01:01:34;5.78;112.91
19536;HTU21D;9913;51.168;4.124;2023-12-20T01:04:03;5.75;113.13
19536;HTU21D;9913;51.168;4.124;2023-12-20T01:06:32;5.77;113.32
19536;HTU21D;9913;51.168;4.124;2023-12-20T01:09:00;5.72;113.37
19536;HTU21D;9913;51.168;4.124;2023-12-20T01:11:28;5.75;113.26
19536;HTU21D;9913;51.168;4.124;2023-12-20T01:13:58;5.70;113.12
19536;HTU21D;9913;51.168;4.124;2023-12-20T01:16:26;5.71;113.00
19536;HTU21D;9913;51.168;4.124;2023-12-20T01:18:54;5.70;113.16
19536;HTU21D;9913;51.168;4.124;2023-12-20T01:21:23;5.75;113.16
19536;HTU21D;9913;51.168;4.124;2023-12-20T01:23:52;5.79;112.96
19536;HTU21D;9913;51.168;4.124;2023-12-20T01:26:20;5.70;112.83
19536;HTU21D;9913;51.168;4.124;2023-12-20T01:28:48;5.71;113.14
19536;HTU21D;9913;51.168;4.124;2023-12-20T01:31:18;5.81;113.01
19536;HTU21D;9913;51.168;4.124;2023-12-20T01:33:46;5.79;112.71
19536;HTU21D;9913;51.168;4.124;2023-12-20T01:36:15;5.89;113.07
19536;HTU21D;9913;51.168;4.124;2023-12-20T01:38:43;5.84;112.97
19536;HTU21D;9913;51.168;4.124;2023-12-20T01:41:11;5.82;112.95
19536;HTU21D;9913;51.168;4.124;2023-12-20T01:43:40;5.83;112.81
19536;HTU21D;9913;51.168;4.124;2023-12-20T01:46:19;5.82;112.80
19536;HTU21D;9913;51.168;4.124;2023-12-20T01:48:49;5.76;112.96
19536;HTU21D;9913;51.168;4.124;2023-12-20T01:51:17;5.89;112.93
19536;HTU21D;9913;51.168;4.124;2023-12-20T01:53:46;5.92;112.74
19536;HTU21D;9913;51.168;4.124;2023-12-20T01:56:15;5.93;112.80
19536;HTU21D;9913;51.168;4.124;2023-12-20T01:58:45;5.95;112.73
19536;HTU21D;9913;51.168;4.124;2023-12-20T02:01:15;5.94;112.68
19536;HTU21D;9913;51.168;4.124;2023-12-20T02:03:45;5.87;112.87
19536;HTU21D;9913;51.168;4.124;2023-12-20T02:06:14;6.01;112.92
19536;HTU21D;9913;51.168;4.124;2023-12-20T02:08:42;6.00;112.64
19536;HTU21D;9913;51.168;4.124;2023-12-20T02:11:11;5.99;112.68
19536;HTU21D;9913;51.168;4.124;2023-12-20T02:13:40;6.04;112.87
19536;HTU21D;9913;51.168;4.124;2023-12-20T02:16:08;5.97;112.82
19536;HTU21D;9913;51.168;4.124;2023-12-20T02:18:36;6.04;112.91
19536;HTU21D;9913;51.168;4.124;2023-12-20T02:21:06;6.09;112.77
19536;HTU21D;9913;51.168;4.124;2023-12-20T02:23:36;6.08;112.82
19536;HTU21D;9913;51.168;4.124;2023-12-20T02:26:04;6.09;112.77
19536;HTU21D;9913;51.168;4.124;2023-12-20T02:28:33;6.01;112.97
19536;HTU21D;9913;51.168;4.124;2023-12-20T02:31:02;6.01;113.22
19536;HTU21D;9913;51.168;4.124;2023-12-20T02:33:31;6.08;113.09
19536;HTU21D;9913;51.168;4.124;2023-12-20T02:35:59;6.05;112.95
19536;HTU21D;9913;51.168;4.124;2023-12-20T02:38:27;6.16;112.92
19536;HTU21D;9913;51.168;4.124;2023-12-20T02:40:57;6.08;112.82
19536;HTU21D;9913;51.168;4.124;2023-12-20T02:43:25;6.10;112.93
19536;HTU21D;9913;51.168;4.124;2023-12-20T02:45:53;6.13;112.97
19536;HTU21D;9913;51.168;4.124;2023-12-20T02:48:22;6.01;113.00
19536;HTU21D;9913;51.168;4.124;2023-12-20T02:50:51;6.02;113.37
19536;HTU21D;9913;51.168;4.124;2023-12-20T02:53:19;6.01;113.43
19536;HTU21D;9913;51.168;4.124;2023-12-20T02:55:47;5.92;113.55
19536;HTU21D;9913;51.168;4.124;2023-12-20T02:58:17;5.87;113.58
19536;HTU21D;9913;51.168;4.124;2023-12-20T03:00:45;5.89;113.55
19536;HTU21D;9913;51.168;4.124;2023-12-20T03:03:14;5.96;113.48
19536;HTU21D;9913;51.168;4.124;2023-12-20T03:05:42;5.92;113.27
19536;HTU21D;9913;51.168;4.124;2023-12-20T03:08:11;5.85;113.60
19536;HTU21D;9913;51.168;4.124;2023-12-20T03:10:39;5.82;113.61
19536;HTU21D;9913;51.168;4.124;2023-12-20T03:13:08;5.81;113.53
19536;HTU21D;9913;51.168;4.124;2023-12-20T03:15:37;5.69;113.55
19536;HTU21D;9913;51.168;4.124;2023-12-20T03:18:06;5.71;113.89
19536;HTU21D;9913;51.168;4.124;2023-12-20T03:20:34;5.67;113.74
19536;HTU21D;9913;51.168;4.124;2023-12-20T03:23:03;5.66;113.87
19536;HTU21D;9913;51.168;4.124;2023-12-20T03:25:31;5.81;113.71
19536;HTU21D;9913;51.168;4.124;2023-12-20T03:27:59;5.87;113.36
19536;HTU21D;9913;51.168;4.124;2023-12-20T03:30:28;5.90;113.39
19536;HTU21D;9913;51.168;4.124;2023-12-20T03:32:57;5.94;113.45
19536;HTU21D;9913;51.168;4.124;2023-12-20T03:35:26;5.91;113.58
19536;HTU21D;9913;51.168;4.124;2023-12-20T03:37:54;5.87;113.78
19536;HTU21D;9913;51.168;4.124;2023-12-20T03:40:23;5.79;113.68
19536;HTU21D;9913;51.168;4.124;2023-12-20T03:42:52;5.74;113.75
19536;HTU21D;9913;51.168;4.124;2023-12-20T03:45:20;5.63;114.11
19536;HTU21D;9913;51.168;4.124;2023-12-20T03:47:48;5.53;114.27
19536;HTU21D;9913;51.168;4.124;2023-12-20T03:50:18;5.62;114.32
19536;HTU21D;9913;51.168;4.124;2023-12-20T03:52:47;5.53;114.06
19536;HTU21D;9913;51.168;4.124;2023-12-20T03:55:15;5.51;114.44
19536;HTU21D;9913;51.168;4.124;2023-12-20T03:57:44;5.53;114.31
19536;HTU21D;9913;51.168;4.124;2023-12-20T04:00:13;5.60;114.38
19536;HTU21D;9913;51.168;4.124;2023-12-20T04:02:42;5.74;114.04
19536;HTU21D;9913;51.168;4.124;2023-12-20T04:05:10;5.77;113.94
19536;HTU21D;9913;51.168;4.124;2023-12-20T04:07:40;5.75;113.96
19536;HTU21D;9913;51.168;4.124;2023-12-20T04:10:09;5.84;114.19
19536;HTU21D;9913;51.168;4.124;2023-12-20T04:12:37;5.85;113.91
19536;HTU21D;9913;51.168;4.124;2023-12-20T04:15:06;5.90;114.20
19536;HTU21D;9913;51.168;4.124;2023-12-20T04:17:37;5.89;114.29
19536;HTU21D;9913;51.168;4.124;2023-12-20T04:20:06;5.98;113.80
19536;HTU21D;9913;51.168;4.124;2023-12-20T04:22:35;5.95;113.96
19536;HTU21D;9913;51.168;4.124;2023-12-20T04:25:05;5.92;114.12
19536;HTU21D;9913;51.168;4.124;2023-12-20T04:27:34;5.95;113.71
19536;HTU21D;9913;51.168;4.124;2023-12-20T04:30:02;5.93;113.93
19536;HTU21D;9913;51.168;4.124;2023-12-20T04:32:31;5.97;113.93
19536;HTU21D;9913;51.168;4.124;2023-12-20T04:35:00;5.93;113.57
19536;HTU21D;9913;51.168;4.124;2023-12-20T04:37:28;5.97;113.51
19536;HTU21D;9913;51.168;4.124;2023-12-20T04:39:56;5.90;113.45
19536;HTU21D;9913;51.168;4.124;2023-12-20T04:42:26;5.82;113.56
19536;HTU21D;9913;51.168;4.124;2023-12-20T04:44:54;5.69;113.96
19536;HTU21D;9913;51.168;4.124;2023-12-20T04:47:23;5.69;113.95
19536;HTU21D;9913;51.168;4.124;2023-12-20T04:49:51;5.72;114.09
19536;HTU21D;9913;51.168;4.124;2023-12-20T04:52:19;5.64;114.08
19536;HTU21D;9913;51.168;4.124;2023-12-20T04:54:48;5.66;113.99
19536;HTU21D;9913;51.168;4.124;2023-12-20T04:57:16;5.62;113.86
19536;HTU21D;9913;51.168;4.124;2023-12-20T04:59:46;5.62;114.10
19536;HTU21D;9913;51.168;4.124;2023-12-20T05:02:14;5.69;114.16
19536;HTU21D;9913;51.168;4.124;2023-12-20T05:04:43;5.63;114.17
19536;HTU21D;9913;51.168;4.124;2023-12-20T05:07:11;5.71;114.02
19536;HTU21D;9913;51.168;4.124;2023-12-20T05:09:39;5.66;113.79
19536;HTU21D;9913;51.168;4.124;2023-12-20T05:12:08;5.75;113.92
19536;HTU21D;9913;51.168;4.124;2023-12-20T05:14:36;5.68;113.80
19536;HTU21D;9913;51.168;4.124;2023-12-20T05:17:06;5.70;113.87
19536;HTU21D;9913;51.168;4.124;2023-12-20T05:19:34;5.67;113.74
19536;HTU21D;9913;51.168;4.124;2023-12-20T05:22:03;5.74;113.66
19536;HTU21D;9913;51.168;4.124;2023-12-20T05:24:31;5.68;113.63
19536;HTU21D;9913;51.168;4.124;2023-12-20T05:27:00;5.65;113.72
19536;HTU21D;9913;51.168;4.124;2023-12-20T05:29:28;5.56;113.80
19536;HTU21D;9913;51.168;4.124;2023-12-20T05:31:58;5.59;114.22
19536;HTU21D;9913;51.168;4.124;2023-12-20T05:34:27;5.66;114.26
19536;HTU21D;9913;51.168;4.124;2023-12-20T05:36:57;5.77;114.24
19536;HTU21D;9913;51.168;4.124;2023-12-20T05:39:25;5.90;113.71
19536;HTU21D;9913;51.168;4.124;2023-12-20T05:41:53;5.97;113.46
19536;HTU21D;9913;51.168;4.124;2023-12-20T05:44:21;6.00;113.54
19536;HTU21D;9913;51.168;4.124;2023-12-20T05:46:50;6.06;113.23
19536;HTU21D;9913;51.168;4.124;2023-12-20T05:49:18;6.13;112.98
19536;HTU21D;9913;51.168;4.124;2023-12-20T05:51:48;6.12;112.84
19536;HTU21D;9913;51.168;4.124;2023-12-20T05:54:17;6.16;112.86
19536;HTU21D;9913;51.168;4.124;2023-12-20T05:56:45;6.24;112.71
19536;HTU21D;9913;51.168;4.124;2023-12-20T05:59:13;6.27;112.65
19536;HTU21D;9913;51.168;4.124;2023-12-20T06:01:41;6.25;112.66
19536;HTU21D;9913;51.168;4.124;2023-12-20T06:04:10;6.20;112.58
19536;HTU21D;9913;51.168;4.124;2023-12-20T06:06:41;6.24;112.55
19536;HTU21D;9913;51.168;4.124;2023-12-20T06:09:12;6.20;112.95
19536;HTU21D;9913;51.168;4.124;2023-12-20T06:11:40;6.23;112.52
19536;HTU21D;9913;51.168;4.124;2023-12-20T06:14:08;6.21;112.29
19536;HTU21D;9913;51.168;4.124;2023-12-20T06:16:37;6.20;112.19
19536;HTU21D;9913;51.168;4.124;2023-12-20T06:19:05;6.06;112.34
19536;HTU21D;9913;51.168;4.124;2023-12-20T06:21:34;6.09;112.37
19536;HTU21D;9913;51.168;4.124;2023-12-20T06:24:02;6.08;112.49
19536;HTU21D;9913;51.168;4.124;2023-12-20T06:26:32;5.98;112.75
19536;HTU21D;9913;51.168;4.124;2023-12-20T06:29:00;5.91;112.89
19536;HTU21D;9913;51.168;4.124;2023-12-20T06:31:29;5.94;113.29
19536;HTU21D;9913;51.168;4.124;2023-12-20T06:33:59;5.99;113.09
19536;HTU21D;9913;51.168;4.124;2023-12-20T06:36:27;6.06;112.89
19536;HTU21D;9913;51.168;4.124;2023-12-20T06:38:56;6.00;112.71
19536;HTU21D;9913;51.168;4.124;2023-12-20T06:41:24;6.08;112.61
19536;HTU21D;9913;51.168;4.124;2023-12-20T06:43:54;6.05;112.42
19536;HTU21D;9913;51.168;4.124;2023-12-20T06:46:22;6.06;112.55
19536;HTU21D;9913;51.168;4.124;2023-12-20T06:48:50;6.07;112.55
19536;HTU21D;9913;51.168;4.124;2023-12-20T06:51:19;6.08;112.26
19536;HTU21D;9913;51.168;4.124;2023-12-20T06:53:47;6.10;112.40
19536;HTU21D;9913;51.168;4.124;2023-12-20T06:56:15;6.01;112.46
19536;HTU21D;9913;51.168;4.124;2023-12-20T06:58:46;6.00;112.26
19536;HTU21D;9913;51.168;4.124;2023-12-20T07:01:16;5.93;112.60
19536;HTU21D;9913;51.168;4.124;2023-12-20T07:03:45;5.86;112.50
19536;HTU21D;9913;51.168;4.124;2023-12-20T07:06:13;5.77;112.73
19536;HTU21D;9913;51.168;4.124;2023-12-20T07:08:44;5.67;112.79
19536;HTU21D;9913;51.168;4.124;2023-12-20T07:11:12;5.64;112.97
19536;HTU21D;9913;51.168;4.124;2023-12-20T07:13:41;5.65;113.08
19536;HTU21D;9913;51.168;4.124;2023-12-20T07:16:09;5.55;113.24
19536;HTU21D;9913;51.168;4.124;2023-12-20T07:18:39;5.50;113.09
19536;HTU21D;9913;51.168;4.124;2023-12-20T07:21:07;5.47;113.22
19536;HTU21D;9913;51.168;4.124;2023-12-20T07:23:36;5.46;113.49
19536;HTU21D;9913;51.168;4.124;2023-12-20T07:26:04;5.47;113.15
19536;HTU21D;9913;51.168;4.124;2023-12-20T07:28:32;5.34;113.13
19536;HTU21D;9913;51.168;4.124;2023-12-20T07:31:01;5.37;113.24
19536;HTU21D;9913;51.168;4.124;2023-12-20T07:33:29;5.25;113.47
19536;HTU21D;9913;51.168;4.124;2023-12-20T07:36:07;5.31;113.69
19536;HTU21D;9913;51.168;4.124;2023-12-20T07:38:35;5.39;113.26
19536;HTU21D;9913;51.168;4.124;2023-12-20T07:41:04;5.38;113.41
19536;HTU21D;9913;51.168;4.124;2023-12-20T07:43:33;5.32;113.17
19536;HTU21D;9913;51.168;4.124;2023-12-20T07:46:04;5.35;113.44
19536;HTU21D;9913;51.168;4.124;2023-12-20T07:48:34;5.42;113.31
19536;HTU21D;9913;51.168;4.124;2023-12-20T07:51:03;5.42;113.19
19536;HTU21D;9913;51.168;4.124;2023-12-20T07:53:34;5.43;113.31
19536;HTU21D;9913;51.168;4.124;2023-12-20T07:56:13;5.51;113.18
19536;HTU21D;9913;51.168;4.124;2023-12-20T07:58:42;5.56;112.95
19536;HTU21D;9913;51.168;4.124;2023-12-20T08:01:19;5.62;113.04
19536;HTU21D;9913;51.168;4.124;2023-12-20T08:03:49;5.67;113.09
19536;HTU21D;9913;51.168;4.124;2023-12-20T08:06:19;5.75;113.00
19536;HTU21D;9913;51.168;4.124;2023-12-20T08:08:49;5.75;112.93
19536;HTU21D;9913;51.168;4.124;2023-12-20T08:11:28;5.76;113.02
19536;HTU21D;9913;51.168;4.124;2023-12-20T08:13:56;5.74;112.78
19536;HTU21D;9913;51.168;4.124;2023-12-20T08:16:43;5.70;112.91
19536;HTU21D;9913;51.168;4.124;2023-12-20T08:19:12;5.64;112.68
19536;HTU21D;9913;51.168;4.124;2023-12-20T08:21:41;5.66;112.87
19536;HTU21D;9913;51.168;4.124;2023-12-20T08:24:10;5.59;112.92
19536;HTU21D;9913;51.168;4.124;2023-12-20T08:26:38;5.62;113.25
19536;HTU21D;9913;51.168;4.124;2023-12-20T08:29:07;5.60;112.90
19536;HTU21D;9913;51.168;4.124;2023-12-20T08:31:35;5.64;112.95
19536;HTU21D;9913;51.168;4.124;2023-12-20T08:34:03;5.59;112.86
19536;HTU21D;9913;51.168;4.124;2023-12-20T08:36:35;5.66;113.03
19536;HTU21D;9913;51.168;4.124;2023-12-20T08:39:03;5.64;112.80
19536;HTU21D;9913;51.168;4.124;2023-12-20T08:41:36;5.68;113.05
19536;HTU21D;9913;51.168;4.124;2023-12-20T08:44:04;5.67;112.90
19536;HTU21D;9913;51.168;4.124;2023-12-20T08:46:33;5.68;112.82
19536;HTU21D;9913;51.168;4.124;2023-12-20T08:49:00;5.74;112.79
19536;HTU21D;9913;51.168;4.124;2023-12-20T08:51:29;5.72;112.68
19536;HTU21D;9913;51.168;4.124;2023-12-20T08:53:57;5.76;112.77
19536;HTU21D;9913;51.168;4.124;2023-12-20T08:56:25;5.82;112.74
19536;HTU21D;9913;51.168;4.124;2023-12-20T08:58:55;5.82;112.81
19536;HTU21D;9913;51.168;4.124;2023-12-20T09:01:23;5.90;112.66
19536;HTU21D;9913;51.168;4.124;2023-12-20T09:03:51;5.94;112.62
19536;HTU21D;9913;51.168;4.124;2023-12-20T09:06:20;6.01;112.56
19536;HTU21D;9913;51.168;4.124;2023-12-20T09:08:48;6.09;112.47
19536;HTU21D;9913;51.168;4.124;2023-12-20T09:11:17;6.22;112.33
19536;HTU21D;9913;51.168;4.124;2023-12-20T09:13:46;6.30;112.37
19536;HTU21D;9913;51.168;4.124;2023-12-20T09:16:16;6.36;112.15
19536;HTU21D;9913;51.168;4.124;2023-12-20T09:18:44;6.41;112.29
19536;HTU21D;9913;51.168;4.124;2023-12-20T09:21:16;6.52;112.27
19536;HTU21D;9913;51.168;4.124;2023-12-20T09:23:44;6.53;112.20
19536;HTU21D;9913;51.168;4.124;2023-12-20T09:26:13;6.54;112.11
19536;HTU21D;9913;51.168;4.124;2023-12-20T09:28:41;6.59;112.42
19536;HTU21D;9913;51.168;4.124;2023-12-20T09:31:09;6.58;112.19
19536;HTU21D;9913;51.168;4.124;2023-12-20T09:33:39;6.66;112.35
19536;HTU21D;9913;51.168;4.124;2023-12-20T09:36:08;6.74;112.29
19536;HTU21D;9913;51.168;4.124;2023-12-20T09:38:36;6.74;112.06
19536;HTU21D;9913;51.168;4.124;2023-12-20T09:41:04;6.81;112.09
19536;HTU21D;9913;51.168;4.124;2023-12-20T09:43:35;6.86;112.08
19536;HTU21D;9913;51.168;4.124;2023-12-20T09:46:06;6.89;112.38
19536;HTU21D;9913;51.168;4.124;2023-12-20T09:48:36;6.97;112.02
19536;HTU21D;9913;51.168;4.124;2023-12-20T09:51:06;6.94;111.81
19536;HTU21D;9913;51.168;4.124;2023-12-20T09:53:35;6.96;112.23
19536;HTU21D;9913;51.168;4.124;2023-12-20T09:56:06;7.04;112.07
19536;HTU21D;9913;51.168;4.124;2023-12-20T09:58:36;7.05;112.67
19536;HTU21D;9913;51.168;4.124;2023-12-20T10:01:05;7.10;112.35
19536;HTU21D;9913;51.168;4.124;2023-12-20T10:03:34;7.15;111.96
19536;HTU21D;9913;51.168;4.124;2023-12-20T10:06:03;7.11;112.39
19536;HTU21D;9913;51.168;4.124;2023-12-20T10:08:33;7.19;111.78
19536;HTU21D;9913;51.168;4.124;2023-12-20T10:11:03;7.20;112.23
19536;HTU21D;9913;51.168;4.124;2023-12-20T10:13:31;7.28;112.09
19536;HTU21D;9913;51.168;4.124;2023-12-20T10:16:00;7.27;112.16
19536;HTU21D;9913;51.168;4.124;2023-12-20T10:18:29;7.31;112.29
19536;HTU21D;9913;51.168;4.124;2023-12-20T10:21:06;7.25;111.77
19536;HTU21D;9913;51.168;4.124;2023-12-20T10:23:36;7.17;112.35
19536;HTU21D;9913;51.168;4.124;2023-12-20T10:26:06;7.23;112.16
19536;HTU21D;9913;51.168;4.124;2023-12-20T10:28:34;7.13;112.27
19536;HTU21D;9913;51.168;4.124;2023-12-20T10:31:03;7.14;112.29
19536;HTU21D;9913;51.168;4.124;2023-12-20T10:33:32;7.24;112.13
19536;HTU21D;9913;51.168;4.124;2023-12-20T10:36:01;7.22;112.26
19536;HTU21D;9913;51.168;4.124;2023-12-20T10:38:30;7.24;112.40
19536;HTU21D;9913;51.168;4.124;2023-12-20T10:41:01;7.28;111.94
19536;HTU21D;9913;51.168;4.124;2023-12-20T10:43:33;7.22;112.26
19536;HTU21D;9913;51.168;4.124;2023-12-20T10:46:03;7.23;112.25
19536;HTU21D;9913;51.168;4.124;2023-12-20T10:48:32;7.28;112.23
19536;HTU21D;9913;51.168;4.124;2023-12-20T10:51:02;7.26;112.37
19536;HTU21D;9913;51.168;4.124;2023-12-20T10:53:32;7.24;112.54
19536;HTU21D;9913;51.168;4.124;2023-12-20T10:56:06;7.32;112.36
19536;HTU21D;9913;51.168;4.124;2023-12-20T10:58:38;7.27;112.23
19536;HTU21D;9913;51.168;4.124;2023-12-20T11:01:09;7.27;112.17
19536;HTU21D;9913;51.168;4.124;2023-12-20T11:03:37;7.29;112.31
19536;HTU21D;9913;51.168;4.124;2023-12-20T11:06:10;7.30;112.18
19536;HTU21D;9913;51.168;4.124;2023-12-20T11:08:55;7.31;112.61
19536;HTU21D;9913;51.168;4.124;2023-12-20T11:11:49;7.29;112.69
19536;HTU21D;9913;51.168;4.124;2023-12-20T11:14:23;7.19;112.87
19536;HTU21D;9913;51.168;4.124;2023-12-20T11:17:05;7.25;112.92
19536;HTU21D;9913;51.168;4.124;2023-12-20T11:19:36;7.17;112.97
19536;HTU21D;9913;51.168;4.124;2023-12-20T11:22:05;7.18;113.04
19536;HTU21D;9913;51.168;4.124;2023-12-20T11:24:34;7.30;113.03
19536;HTU21D;9913;51.168;4.124;2023-12-20T11:27:06;7.32;112.92
19536;HTU21D;9913;51.168;4.124;2023-12-20T11:29:35;7.32;112.84
19536;HTU21D;9913;51.168;4.124;2023-12-20T11:32:27;7.31;112.87
19536;HTU21D;9913;51.168;4.124;2023-12-20T11:34:58;7.31;112.45
19536;HTU21D;9913;51.168;4.124;2023-12-20T11:37:32;7.40;112.34
19536;HTU21D;9913;51.168;4.124;2023-12-20T11:40:06;7.47;112.26
19536;HTU21D;9913;51.168;4.124;2023-12-20T11:42:39;7.47;112.32
19536;HTU21D;9913;51.168;4.124;2023-12-20T11:45:09;7.47;112.46
19536;HTU21D;9913;51.168;4.124;2023-12-20T11:47:38;7.54;112.13
19536;HTU21D;9913;51.168;4.124;2023-12-20T11:50:07;7.60;111.81
19536;HTU21D;9913;51.168;4.124;2023-12-20T11:52:35;7.63;111.95
19536;HTU21D;9913;51.168;4.124;2023-12-20T11:55:04;7.72;111.94
19536;HTU21D;9913;51.168;4.124;2023-12-20T11:57:33;7.78;111.86
19536;HTU21D;9913;51.168;4.124;2023-12-20T12:00:04;7.82;111.74
19536;HTU21D;9913;51.168;4.124;2023-12-20T12:02:42;7.91;111.66
19536;HTU21D;9913;51.168;4.124;2023-12-20T12:05:14;7.93;111.68
19536;HTU21D;9913;51.168;4.124;2023-12-20T12:07:42;7.89;111.49
19536;HTU21D;9913;51.168;4.124;2023-12-20T12:10:11;7.87;111.77
19536;HTU21D;9913;51.168;4.124;2023-12-20T12:12:40;7.90;111.99
19536;HTU21D;9913;51.168;4.124;2023-12-20T12:15:10;7.92;111.71
19536;HTU21D;9913;51.168;4.124;2023-12-20T12:17:38;7.94;111.83
19536;HTU21D;9913;51.168;4.124;2023-12-20T12:20:07;7.87;112.00
19536;HTU21D;9913;51.168;4.124;2023-12-20T12:22:37;7.91;112.00
19536;HTU21D;9913;51.168;4.124;2023-12-20T12:25:12;7.93;111.91
19536;HTU21D;9913;51.168;4.124;2023-12-20T12:27:41;7.91;111.80
19536;HTU21D;9913;51.168;4.124;2023-12-20T12:30:11;7.91;111.93
19536;HTU21D;9913;51.168;4.124;2023-12-20T12:32:40;7.91;112.01
19536;HTU21D;9913;51.168;4.124;2023-12-20T12:35:09;8.02;112.12
19536;HTU21D;9913;51.168;4.124;2023-12-20T12:37:39;8.06;112.05
19536;HTU21D;9913;51.168;4.124;2023-12-20T12:40:10;8.12;112.10
19536;HTU21D;9913;51.168;4.124;2023-12-20T12:42:39;8.14;112.00
19536;HTU21D;9913;51.168;4.124;2023-12-20T12:45:08;8.09;111.89
19536;HTU21D;9913;51.168;4.124;2023-12-20T12:47:38;8.03;111.84
19536;HTU21D;9913;51.168;4.124;2023-12-20T12:50:07;7.98;111.97
19536;HTU21D;9913;51.168;4.124;2023-12-20T12:52:37;8.03;112.15
19536;HTU21D;9913;51.168;4.124;2023-12-20T12:55:06;8.04;112.06
19536;HTU21D;9913;51.168;4.124;2023-12-20T12:57:34;8.00;111.94
19536;HTU21D;9913;51.168;4.124;2023-12-20T13:00:03;8.04;111.84
19536;HTU21D;9913;51.168;4.124;2023-12-20T13:02:35;8.08;111.84
19536;HTU21D;9913;51.168;4.124;2023-12-20T13:05:07;8.09;112.03
19536;HTU21D;9913;51.168;4.124;2023-12-20T13:07:36;8.04;111.88
19536;HTU21D;9913;51.168;4.124;2023-12-20T13:10:06;8.06;111.84
19536;HTU21D;9913;51.168;4.124;2023-12-20T13:12:35;8.05;112.04
19536;HTU21D;9913;51.168;4.124;2023-12-20T13:15:04;8.13;111.73
19536;HTU21D;9913;51.168;4.124;2023-12-20T13:17:32;8.11;111.90
19536;HTU21D;9913;51.168;4.124;2023-12-20T13:20:01;8.14;112.05
19536;HTU21D;9913;51.168;4.124;2023-12-20T13:22:31;8.17;111.95
19536;HTU21D;9913;51.168;4.124;2023-12-20T13:25:00;8.16;111.97
19536;HTU21D;9913;51.168;4.124;2023-12-20T13:27:30;8.19;111.71
19536;HTU21D;9913;51.168;4.124;2023-12-20T13:29:58;8.19;111.67
19536;HTU21D;9913;51.168;4.124;2023-12-20T13:32:26;8.17;111.82
19536;HTU21D;9913;51.168;4.124;2023-12-20T13:34:55;8.24;111.88
19536;HTU21D;9913;51.168;4.124;2023-12-20T13:37:23;8.23;112.00
19536;HTU21D;9913;51.168;4.124;2023-12-20T13:39:53;8.21;111.77
19536;HTU21D;9913;51.168;4.124;2023-12-20T13:42:23;8.23;111.81
19536;HTU21D;9913;51.168;4.124;2023-12-20T13:44:53;8.29;111.68
19536;HTU21D;9913;51.168;4.124;2023-12-20T13:47:22;8.30;111.61
19536;HTU21D;9913;51.168;4.124;2023-12-20T13:49:51;8.32;111.55
19536;HTU21D;9913;51.168;4.124;2023-12-20T13:52:20;8.32;111.76
19536;HTU21D;9913;51.168;4.124;2023-12-20T13:54:48;8.33;111.68
19536;HTU21D;9913;51.168;4.124;2023-12-20T13:57:18;8.32;111.83
19536;HTU21D;9913;51.168;4.124;2023-12-20T14:00:07;8.36;111.96
19536;HTU21D;9913;51.168;4.124;2023-12-20T14:02:42;8.35;111.82
19536;HTU21D;9913;51.168;4.124;2023-12-20T14:05:10;8.37;111.79
19536;HTU21D;9913;51.168;4.124;2023-12-20T14:07:41;8.38;111.77
19536;HTU21D;9913;51.168;4.124;2023-12-20T14:10:12;8.34;111.93
19536;HTU21D;9913;51.168;4.124;2023-12-20T14:12:42;8.42;111.76
19536;HTU21D;9913;51.168;4.124;2023-12-20T14:15:12;8.45;112.14
19536;HTU21D;9913;51.168;4.124;2023-12-20T14:17:41;8.48;112.06
19536;HTU21D;9913;51.168;4.124;2023-12-20T14:20:10;8.56;111.81
19536;HTU21D;9913;51.168;4.124;2023-12-20T14:22:40;8.55;111.81
19536;HTU21D;9913;51.168;4.124;2023-12-20T14:25:11;8.53;111.51
19536;HTU21D;9913;51.168;4.124;2023-12-20T14:27:40;8.57;111.90
19536;HTU21D;9913;51.168;4.124;2023-12-20T14:30:13;8.55;111.85
19536;HTU21D;9913;51.168;4.124;2023-12-20T14:32:42;8.53;111.77
19536;HTU21D;9913;51.168;4.124;2023-12-20T14:35:10;8.46;111.89
19536;HTU21D;9913;51.168;4.124;2023-12-20T14:37:40;8.51;112.06
19536;HTU21D;9913;51.168;4.124;2023-12-20T14:40:09;8.45;112.03
19536;HTU21D;9913;51.168;4.124;2023-12-20T14:42:44;8.45;111.88
19536;HTU21D;9913;51.168;4.124;2023-12-20T14:45:15;8.44;111.63
19536;HTU21D;9913;51.168;4.124;2023-12-20T14:47:44;8.47;112.16
19536;HTU21D;9913;51.168;4.124;2023-12-20T14:50:15;8.53;111.77
19536;HTU21D;9913;51.168;4.124;2023-12-20T14:52:46;8.52;111.74
19536;HTU21D;9913;51.168;4.124;2023-12-20T14:55:14;8.51;112.00
19536;HTU21D;9913;51.168;4.124;2023-12-20T14:57:44;8.51;111.84
19536;HTU21D;9913;51.168;4.124;2023-12-20T15:00:13;8.56;111.87
19536;HTU21D;9913;51.168;4.124;2023-12-20T15:02:45;8.48;111.80
19536;HTU21D;9913;51.168;4.124;2023-12-20T15:05:14;8.55;112.06
19536;HTU21D;9913;51.168;4.124;2023-12-20T15:07:43;8.52;111.94
19536;HTU21D;9913;51.168;4.124;2023-12-20T15:10:12;8.48;111.73
19536;HTU21D;9913;51.168;4.124;2023-12-20T15:12:41;8.55;112.05
19536;HTU21D;9913;51.168;4.124;2023-12-20T15:15:09;8.55;111.80
19536;HTU21D;9913;51.168;4.124;2023-12-20T15:17:38;8.55;111.79
19536;HTU21D;9913;51.168;4.124;2023-12-20T15:20:09;8.57;111.91
19536;HTU21D;9913;51.168;4.124;2023-12-20T15:22:38;8.57;111.90
19536;HTU21D;9913;51.168;4.124;2023-12-20T15:25:08;8.57;111.96
19536;HTU21D;9913;51.168;4.124;2023-12-20T15:27:37;8.56;112.17
19536;HTU21D;9913;51.168;4.124;2023-12-20T15:30:06;8.56;112.08
19536;HTU21D;9913;51.168;4.124;2023-12-20T15:32:36;8.51;111.97
19536;HTU21D;9913;51.168;4.124;2023-12-20T15:35:06;8.52;111.97
19536;HTU21D;9913;51.168;4.124;2023-12-20T15:37:38;8.57;111.74
19536;HTU21D;9913;51.168;4.124;2023-12-20T15:40:08;8.57;111.94
19536;HTU21D;9913;51.168;4.124;2023-12-20T15:42:38;8.50;112.10
19536;HTU21D;9913;51.168;4.124;2023-12-20T15:45:07;8.50;111.94